createdAt,value
2017-10-16T00:01:02.066Z,19.42
2017-10-16T00:03:30.375Z,19.12
2017-10-16T00:05:58.635Z,18.08
2017-10-16T00:08:26.882Z,22.52
2017-10-16T00:10:58.272Z,21.54
2017-10-16T00:13:26.529Z,19.36
2017-10-16T00:16:02.011Z,18.88
2017-10-16T00:18:30.271Z,19.42
2017-10-16T00:20:58.566Z,19.90
2017-10-16T00:23:26.826Z,19.52
2017-10-16T00:25:55.091Z,19.90
2017-10-16T00:28:23.395Z,21.92
2017-10-16T00:30:51.659Z,19.76
2017-10-16T00:33:25.974Z,21.92
2017-10-16T00:35:54.265Z,21.50
2017-10-16T00:38:26.403Z,20.38
2017-10-16T00:40:53.890Z,20.60
2017-10-16T00:43:22.190Z,21.24
2017-10-16T00:45:51.374Z,17.50
2017-10-16T00:48:19.647Z,16.98
2017-10-16T00:51:04.340Z,17.34
2017-10-16T00:53:33.283Z,19.46
2017-10-16T00:56:01.567Z,18.38
2017-10-16T00:58:29.854Z,17.38
2017-10-16T01:00:59.032Z,19.70
2017-10-16T01:03:27.294Z,19.08
2017-10-16T01:06:19.042Z,18.42
2017-10-16T01:08:47.300Z,17.92
2017-10-16T01:11:25.615Z,19.78
2017-10-16T01:13:53.870Z,19.52
2017-10-16T01:16:33.378Z,18.32
2017-10-16T01:19:01.627Z,19.24
2017-10-16T01:21:29.942Z,16.64
2017-10-16T01:23:58.200Z,19.10
2017-10-16T01:26:43.658Z,18.50
2017-10-16T01:29:11.919Z,19.12
2017-10-16T01:31:48.008Z,19.70
2017-10-16T01:34:16.269Z,19.52
2017-10-16T01:36:44.599Z,20.08
2017-10-16T01:39:12.896Z,19.84
2017-10-16T01:41:50.909Z,20.98
2017-10-16T01:44:19.196Z,19.72
2017-10-16T01:46:47.451Z,23.16
2017-10-16T01:49:15.747Z,22.48
2017-10-16T01:51:44.008Z,20.96
2017-10-16T01:54:14.235Z,20.34
2017-10-16T01:56:42.524Z,22.58
2017-10-16T01:59:20.803Z,21.38
2017-10-16T02:01:49.112Z,22.88
2017-10-16T02:04:27.956Z,23.14
2017-10-16T02:06:56.251Z,22.96
2017-10-16T02:09:24.540Z,19.66
2017-10-16T02:11:56.681Z,22.12
2017-10-16T02:14:24.979Z,21.80
2017-10-16T02:17:10.118Z,19.92
2017-10-16T02:19:39.491Z,21.72
2017-10-16T02:22:08.739Z,18.50
2017-10-16T02:24:38.020Z,22.36
2017-10-16T02:27:16.644Z,24.52
2017-10-16T02:29:44.912Z,21.80
2017-10-16T02:32:14.140Z,21.68
2017-10-16T02:34:42.427Z,21.34
2017-10-16T02:37:20.870Z,21.76
2017-10-16T02:39:49.168Z,20.12
2017-10-16T02:42:17.429Z,20.18
2017-10-16T02:44:46.672Z,21.64
2017-10-16T02:47:19.064Z,20.86
2017-10-16T02:49:50.735Z,21.66
2017-10-16T02:52:18.995Z,19.20
2017-10-16T02:54:47.293Z,22.38
2017-10-16T02:57:15.563Z,18.80
2017-10-16T02:59:44.872Z,20.10
2017-10-16T03:02:13.132Z,20.40
2017-10-16T03:04:41.393Z,19.54
2017-10-16T03:07:09.700Z,20.18
2017-10-16T03:09:39.192Z,21.56
2017-10-16T03:12:07.112Z,21.38
2017-10-16T03:14:42.424Z,21.82
2017-10-16T03:17:10.688Z,20.98
2017-10-16T03:19:42.651Z,21.68
2017-10-16T03:22:10.912Z,19.66
2017-10-16T03:24:49.364Z,20.62
2017-10-16T03:27:17.652Z,20.46
2017-10-16T03:29:56.312Z,21.76
2017-10-16T03:32:24.567Z,21.82
2017-10-16T03:34:52.830Z,22.54
2017-10-16T03:37:21.123Z,22.14
2017-10-16T03:40:06.352Z,21.42
2017-10-16T03:42:34.797Z,20.74
2017-10-16T03:45:04.005Z,21.28
2017-10-16T03:47:35.563Z,21.04
2017-10-16T03:50:04.801Z,19.92
2017-10-16T03:52:34.339Z,18.94
2017-10-16T03:55:03.497Z,21.54
2017-10-16T03:57:32.776Z,21.50
2017-10-16T04:00:01.056Z,21.10
2017-10-16T04:02:38.407Z,21.16
2017-10-16T04:05:07.113Z,21.74
2017-10-16T04:07:42.508Z,21.28
2017-10-16T04:10:10.820Z,20.40
2017-10-16T04:12:58.766Z,18.60
2017-10-16T04:15:27.060Z,18.36
2017-10-16T04:17:56.236Z,19.06
2017-10-16T04:20:24.531Z,19.24
2017-10-16T04:23:06.304Z,19.70
2017-10-16T04:25:35.836Z,20.30
2017-10-16T04:28:05.042Z,20.80
2017-10-16T04:30:34.708Z,18.62
2017-10-16T04:33:09.080Z,19.30
2017-10-16T04:35:39.002Z,19.54
2017-10-16T04:38:09.204Z,19.82
2017-10-16T04:40:38.460Z,20.62
2017-10-16T04:43:07.227Z,21.34
2017-10-16T04:45:35.516Z,20.76
2017-10-16T04:48:05.232Z,20.10
2017-10-16T04:50:34.328Z,22.50
2017-10-16T04:53:09.673Z,20.50
2017-10-16T04:55:38.900Z,23.16
2017-10-16T04:58:07.220Z,20.96
2017-10-16T05:00:35.515Z,21.28
2017-10-16T05:03:04.139Z,21.00
2017-10-16T05:05:34.092Z,20.80
2017-10-16T05:08:03.637Z,20.30
2017-10-16T05:10:31.932Z,22.46
2017-10-16T05:13:00.195Z,19.96
2017-10-16T05:15:28.455Z,19.96
2017-10-16T05:18:07.198Z,18.04
2017-10-16T05:20:35.461Z,20.16
2017-10-16T05:23:07.163Z,18.84
2017-10-16T05:25:35.428Z,19.34
2017-10-16T05:28:04.920Z,18.30
2017-10-16T05:30:34.692Z,19.72
2017-10-16T05:33:04.935Z,18.14
2017-10-16T05:35:34.087Z,17.52
2017-10-16T05:38:12.155Z,18.54
2017-10-16T05:40:40.411Z,18.18
2017-10-16T05:43:13.721Z,17.66
2017-10-16T05:45:41.984Z,18.08
2017-10-16T05:48:20.428Z,18.46
2017-10-16T05:50:48.683Z,18.16
2017-10-16T05:53:20.740Z,19.16
2017-10-16T05:55:49.008Z,18.30
2017-10-16T05:58:20.729Z,18.40
2017-10-16T06:00:48.990Z,17.36
2017-10-16T06:03:38.779Z,17.16
2017-10-16T06:06:08.099Z,17.92
2017-10-16T06:08:36.400Z,16.54
2017-10-16T06:11:05.300Z,15.80
2017-10-16T06:13:36.043Z,17.68
2017-10-16T06:16:05.711Z,16.76
2017-10-16T06:18:34.939Z,16.72
2017-10-16T06:21:04.672Z,16.86
2017-10-16T06:23:34.944Z,18.24
2017-10-16T06:26:04.564Z,16.16
2017-10-16T06:28:33.108Z,16.00
2017-10-16T06:31:01.363Z,16.00
2017-10-16T06:33:31.583Z,16.56
2017-10-16T06:35:59.839Z,16.88
2017-10-16T06:38:35.436Z,17.92
2017-10-16T06:41:04.035Z,17.12
2017-10-16T06:43:32.298Z,16.56
2017-10-16T06:46:00.595Z,15.68
2017-10-16T06:48:28.874Z,17.02
2017-10-16T06:50:57.136Z,16.68
2017-10-16T06:53:30.131Z,16.86
2017-10-16T06:55:58.396Z,16.92
2017-10-16T06:58:25.916Z,16.96
2017-10-16T07:00:54.206Z,17.96
2017-10-16T07:03:34.737Z,16.92
2017-10-16T07:06:04.140Z,17.16
2017-10-16T07:08:34.252Z,17.80
2017-10-16T07:11:03.260Z,17.92
2017-10-16T07:13:31.552Z,18.90
2017-10-16T07:15:59.819Z,18.36
2017-10-16T07:18:28.111Z,18.44
2017-10-16T07:20:56.376Z,19.34
2017-10-16T07:23:24.676Z,17.88
2017-10-16T07:25:52.944Z,20.46
2017-10-16T07:28:21.238Z,17.70
2017-10-16T07:30:49.536Z,20.66
2017-10-16T07:33:17.808Z,21.16
2017-10-16T07:35:46.063Z,20.08
2017-10-16T07:38:14.355Z,20.78
2017-10-16T07:40:42.643Z,21.64
2017-10-16T07:43:10.932Z,20.08
2017-10-16T07:45:39.240Z,21.68
2017-10-16T07:48:08.334Z,20.72
2017-10-16T07:50:37.426Z,21.56
2017-10-16T07:53:05.709Z,22.62
2017-10-16T07:55:35.223Z,20.44
2017-10-16T07:58:04.532Z,21.16
2017-10-16T08:00:32.821Z,19.66
2017-10-16T08:03:01.124Z,20.02
2017-10-16T08:05:29.400Z,20.66
2017-10-16T08:07:57.691Z,19.94
2017-10-16T08:10:25.996Z,21.78
2017-10-16T08:12:53.495Z,20.30
2017-10-16T08:15:22.734Z,20.16
2017-10-16T08:17:51.029Z,18.66
2017-10-16T08:20:20.255Z,19.58
2017-10-16T08:22:48.544Z,19.78
2017-10-16T08:25:17.775Z,19.16
2017-10-16T08:27:46.068Z,17.76
2017-10-16T08:30:14.360Z,19.74
2017-10-16T08:32:42.614Z,18.38
2017-10-16T08:35:25.501Z,18.20
2017-10-16T08:37:53.760Z,20.06
2017-10-16T08:40:22.076Z,20.02
2017-10-16T08:42:50.389Z,20.78
2017-10-16T08:45:22.223Z,19.46
2017-10-16T08:47:50.550Z,20.38
2017-10-16T08:50:18.820Z,20.94
2017-10-16T08:52:47.083Z,21.94
2017-10-16T08:55:18.377Z,20.05
2017-10-16T08:57:46.654Z,18.90
2017-10-16T09:00:15.739Z,19.56
2017-10-16T09:02:44.005Z,19.72
2017-10-16T09:05:12.276Z,20.90
2017-10-16T09:07:40.548Z,18.46
2017-10-16T09:10:09.784Z,18.50
2017-10-16T09:12:39.228Z,17.76
2017-10-16T09:15:08.315Z,18.22
2017-10-16T09:17:37.399Z,19.82
2017-10-16T09:20:10.879Z,20.72
2017-10-16T09:22:39.168Z,18.42
2017-10-16T09:25:08.686Z,17.56
2017-10-16T09:27:38.432Z,16.64
2017-10-16T09:30:10.939Z,17.70
2017-10-16T09:32:39.539Z,16.58
2017-10-16T09:35:07.831Z,16.10
2017-10-16T09:37:36.091Z,16.66
2017-10-16T09:40:06.300Z,16.86
2017-10-16T09:42:35.503Z,17.56
2017-10-16T09:45:05.600Z,14.32
2017-10-16T09:47:35.020Z,15.88
2017-10-16T09:50:03.177Z,16.48
2017-10-16T09:52:31.444Z,14.46
2017-10-16T09:55:04.752Z,13.10
2017-10-16T09:57:34.096Z,15.50
2017-10-16T10:00:05.300Z,13.66
2017-10-16T10:02:34.511Z,14.84
2017-10-16T10:05:04.713Z,14.08
2017-10-16T10:07:34.192Z,14.28
2017-10-16T10:10:14.544Z,13.08
2017-10-16T10:12:42.844Z,13.36
2017-10-16T10:15:12.068Z,12.98
2017-10-16T10:17:40.332Z,13.34
2017-10-16T10:20:21.543Z,13.16
2017-10-16T10:22:49.808Z,13.77
2017-10-16T10:25:24.842Z,13.42
2017-10-16T10:27:53.132Z,13.60
2017-10-16T10:33:24.377Z,12.46
2017-10-16T10:35:52.640Z,14.70
2017-10-16T10:38:40.724Z,14.18
2017-10-16T10:41:08.988Z,12.50
2017-10-16T10:43:43.515Z,14.72
2017-10-16T10:46:11.782Z,13.22
2017-10-16T10:48:41.996Z,12.78
2017-10-16T10:51:10.302Z,13.36
2017-10-16T10:53:41.939Z,13.02
2017-10-16T10:56:10.233Z,13.18
2017-10-16T11:01:31.508Z,11.86
2017-10-16T11:03:59.807Z,12.96
2017-10-16T11:09:42.076Z,11.92
2017-10-16T11:12:10.351Z,12.22
2017-10-16T11:14:58.141Z,11.80
2017-10-16T11:17:26.430Z,12.98
2017-10-16T11:22:49.036Z,12.14
2017-10-16T11:25:17.337Z,11.44
2017-10-16T11:27:55.743Z,12.16
2017-10-16T11:30:24.011Z,11.60
2017-10-16T11:33:03.979Z,12.44
2017-10-16T11:35:32.245Z,13.50
2017-10-16T11:38:03.290Z,11.50
2017-10-16T11:40:31.551Z,12.62
2017-10-16T11:43:04.365Z,11.86
2017-10-16T11:45:33.423Z,11.40
2017-10-16T11:48:01.727Z,11.32
2017-10-16T11:50:29.271Z,12.06
2017-10-16T11:53:04.409Z,11.16
2017-10-16T11:55:32.673Z,12.64
2017-10-16T11:58:01.219Z,11.04
2017-10-16T12:00:29.504Z,12.42
2017-10-16T12:02:57.797Z,12.06
2017-10-16T12:05:26.056Z,10.98
2017-10-16T12:07:54.320Z,12.84
2017-10-16T12:10:22.620Z,12.26
2017-10-16T12:12:53.928Z,11.70
2017-10-16T12:15:22.243Z,11.86
2017-10-16T12:17:50.521Z,12.90
2017-10-16T12:20:18.788Z,10.22
2017-10-16T12:22:47.104Z,12.36
2017-10-16T12:25:15.367Z,11.02
2017-10-16T12:27:45.591Z,11.86
2017-10-16T12:30:13.895Z,11.22
2017-10-16T12:32:42.184Z,11.84
2017-10-16T12:35:10.440Z,11.20
2017-10-16T12:37:39.932Z,12.16
2017-10-16T12:40:09.003Z,11.48
2017-10-16T12:42:37.315Z,12.20
2017-10-16T12:45:05.616Z,11.20
2017-10-16T12:47:34.597Z,11.56
2017-10-16T12:50:04.835Z,11.04
2017-10-16T12:52:32.332Z,11.26
2017-10-16T12:55:00.603Z,10.22
2017-10-16T12:57:28.128Z,12.06
2017-10-16T12:59:56.407Z,10.92
2017-10-16T13:02:23.916Z,11.50
2017-10-16T13:04:55.135Z,13.64
2017-10-16T13:07:23.400Z,12.12
2017-10-16T13:09:52.676Z,12.32
2017-10-16T13:12:20.935Z,11.58
2017-10-16T13:14:49.196Z,11.58
2017-10-16T13:17:17.496Z,12.44
2017-10-16T13:19:45.821Z,13.28
2017-10-16T13:22:14.088Z,13.36
2017-10-16T13:24:45.763Z,11.94
2017-10-16T13:27:14.028Z,12.40
2017-10-16T13:29:46.055Z,12.12
2017-10-16T13:32:14.312Z,10.66
2017-10-16T13:34:42.573Z,12.34
2017-10-16T13:37:10.940Z,11.14
2017-10-16T13:39:39.552Z,10.98
2017-10-16T13:42:07.856Z,11.44
2017-10-16T13:44:42.972Z,11.76
2017-10-16T13:47:11.259Z,11.48
2017-10-16T13:49:40.533Z,11.44
2017-10-16T13:52:09.267Z,10.78
2017-10-16T13:54:38.691Z,11.36
2017-10-16T13:57:07.346Z,12.24
2017-10-16T13:59:35.660Z,12.14
2017-10-16T14:02:04.995Z,11.48
2017-10-16T14:04:34.807Z,11.74
2017-10-16T14:07:04.019Z,11.12
2017-10-16T14:09:35.116Z,11.60
2017-10-16T14:12:04.327Z,13.14
2017-10-16T14:14:33.415Z,11.48
2017-10-16T14:17:01.672Z,12.86
2017-10-16T14:19:34.853Z,11.42
2017-10-16T14:22:02.369Z,11.68
2017-10-16T14:24:30.660Z,11.90
2017-10-16T14:26:58.953Z,11.44
2017-10-16T14:29:30.692Z,12.74
2017-10-16T14:31:58.235Z,10.92
2017-10-16T14:34:37.459Z,10.92
2017-10-16T14:37:05.751Z,10.86
2017-10-16T14:39:34.735Z,11.90
2017-10-16T14:42:03.985Z,10.62
2017-10-16T14:44:32.251Z,10.64
2017-10-16T14:47:00.596Z,11.26
2017-10-16T14:49:28.101Z,10.70
2017-10-16T14:51:56.364Z,10.66
2017-10-16T14:54:24.659Z,11.14
2017-10-16T14:56:52.920Z,11.30
2017-10-16T14:59:20.427Z,11.28
2017-10-16T15:01:48.739Z,12.16
2017-10-16T15:04:17.004Z,10.20
2017-10-16T15:06:44.539Z,11.08
2017-10-16T15:09:31.896Z,12.58
2017-10-16T15:12:00.165Z,12.14
2017-10-16T15:14:29.405Z,13.54
2017-10-16T15:16:57.669Z,12.36
2017-10-16T15:19:33.655Z,12.74
2017-10-16T15:22:01.919Z,12.22
2017-10-16T15:24:30.219Z,11.90
2017-10-16T15:26:58.480Z,11.62
2017-10-16T15:29:27.711Z,12.00
2017-10-16T15:31:56.004Z,12.10
2017-10-16T15:34:24.268Z,12.20
2017-10-16T15:36:52.571Z,10.32
2017-10-16T15:39:28.231Z,12.32
2017-10-16T15:41:56.536Z,11.42
2017-10-16T15:44:24.791Z,10.88
2017-10-16T15:46:53.059Z,12.04
2017-10-16T15:49:21.356Z,11.62
2017-10-16T15:51:49.623Z,11.42
2017-10-16T15:54:22.308Z,9.90
2017-10-16T15:56:50.568Z,12.10
2017-10-16T15:59:22.396Z,13.12
2017-10-16T16:01:53.325Z,10.94
2017-10-16T16:04:35.850Z,11.40
2017-10-16T16:07:04.974Z,11.72
2017-10-16T16:09:34.797Z,11.38
2017-10-16T16:12:04.140Z,10.64
2017-10-16T16:14:33.649Z,13.18
2017-10-16T16:17:01.967Z,11.12
2017-10-16T16:19:30.227Z,11.54
2017-10-16T16:21:58.525Z,11.54
2017-10-16T16:24:26.828Z,11.26
2017-10-16T16:26:55.084Z,11.24
2017-10-16T16:29:23.340Z,11.50
2017-10-16T16:31:51.627Z,12.46
2017-10-16T16:34:19.923Z,12.64
2017-10-16T16:36:48.179Z,11.46
2017-10-16T16:39:16.439Z,11.76
2017-10-16T16:41:44.735Z,12.80
2017-10-16T16:44:12.992Z,11.84
2017-10-16T16:46:40.532Z,11.72
2017-10-16T16:49:09.756Z,11.62
2017-10-16T16:51:38.023Z,10.92
2017-10-16T16:54:06.324Z,12.10
2017-10-16T16:56:36.288Z,11.48
2017-10-16T16:59:05.136Z,11.68
2017-10-16T17:01:35.352Z,11.38
2017-10-16T17:04:03.612Z,12.88
2017-10-16T17:06:31.884Z,12.18
2017-10-16T17:09:00.176Z,13.28
2017-10-16T17:11:28.475Z,12.00
2017-10-16T17:13:57.688Z,11.76
2017-10-16T17:16:25.961Z,12.54
2017-10-16T17:18:54.255Z,13.06
2017-10-16T17:21:22.512Z,12.10
2017-10-16T17:23:54.904Z,12.68
2017-10-16T17:26:22.405Z,13.18
2017-10-16T17:29:10.832Z,12.30
2017-10-16T17:31:39.107Z,11.56
2017-10-16T17:34:07.415Z,11.56
2017-10-16T17:36:34.951Z,12.00
2017-10-16T17:39:04.249Z,12.60
2017-10-16T17:41:33.218Z,12.30
2017-10-16T17:44:18.947Z,12.48
2017-10-16T17:46:47.217Z,12.38
2017-10-16T17:49:15.471Z,12.12
2017-10-16T17:51:43.785Z,11.40
2017-10-16T17:54:12.066Z,11.12
2017-10-16T17:56:40.356Z,11.20
2017-10-16T17:59:21.201Z,11.92
2017-10-16T18:01:49.505Z,12.94
2017-10-16T18:04:21.889Z,10.78
2017-10-16T18:06:50.181Z,11.08
2017-10-16T18:09:19.367Z,12.34
2017-10-16T18:11:47.657Z,12.68
2017-10-16T18:14:15.915Z,13.52
2017-10-16T18:16:44.212Z,14.14
2017-10-16T18:19:12.473Z,11.70
2017-10-16T18:21:40.737Z,11.08
2017-10-16T18:24:09.044Z,12.20
2017-10-16T18:26:38.191Z,10.72
2017-10-16T18:29:06.474Z,10.64
2017-10-16T18:31:35.128Z,11.26
2017-10-16T18:34:04.440Z,10.80
2017-10-16T18:36:33.684Z,12.46
2017-10-16T18:39:01.980Z,11.16
2017-10-16T18:41:32.219Z,12.00
2017-10-16T18:44:00.512Z,11.70
2017-10-16T18:46:28.819Z,11.16
2017-10-16T18:48:56.307Z,11.30
2017-10-16T18:51:24.608Z,11.26
2017-10-16T18:53:52.894Z,11.14
2017-10-16T18:56:22.133Z,11.96
2017-10-16T18:58:50.399Z,11.66
2017-10-16T19:01:25.768Z,11.22
2017-10-16T19:03:54.037Z,11.30
2017-10-16T19:06:22.304Z,11.74
2017-10-16T19:08:50.599Z,12.30
2017-10-16T19:11:19.847Z,12.04
2017-10-16T19:13:48.112Z,10.82
2017-10-16T19:16:17.332Z,10.68
2017-10-16T19:18:45.625Z,11.82
2017-10-16T19:21:13.923Z,11.22
2017-10-16T19:23:48.263Z,10.96
2017-10-16T19:26:16.552Z,12.10
2017-10-16T19:28:46.782Z,10.24
2017-10-16T19:31:15.054Z,11.84
2017-10-16T19:33:43.352Z,13.06
2017-10-16T19:36:11.650Z,11.42
2017-10-16T19:38:41.828Z,11.54
2017-10-16T19:41:10.124Z,11.50
2017-10-16T19:43:38.979Z,11.06
2017-10-16T19:46:08.260Z,12.36
2017-10-16T19:48:36.569Z,12.32
2017-10-16T19:51:04.856Z,12.18
2017-10-16T19:53:33.919Z,12.98
2017-10-16T19:56:02.223Z,13.90
2017-10-16T19:58:36.704Z,14.22
2017-10-16T20:01:05.236Z,12.48
2017-10-16T20:03:34.108Z,13.36
2017-10-16T20:06:02.376Z,13.66
2017-10-16T20:08:30.863Z,12.74
2017-10-16T20:10:59.124Z,13.26
2017-10-16T20:13:27.397Z,12.60
2017-10-16T20:15:55.688Z,12.56
2017-10-16T20:18:23.947Z,13.64
2017-10-16T20:20:52.254Z,14.20
2017-10-16T20:23:23.577Z,13.40
2017-10-16T20:25:51.867Z,12.38
2017-10-16T20:28:20.124Z,13.58
2017-10-16T20:30:48.416Z,13.76
2017-10-16T20:33:16.705Z,14.08
2017-10-16T20:35:44.969Z,12.50
2017-10-16T20:38:13.255Z,13.90
2017-10-16T20:40:41.512Z,14.00
2017-10-16T20:43:09.796Z,14.22
2017-10-16T20:45:38.395Z,13.70
2017-10-16T20:48:06.693Z,14.00
2017-10-16T20:50:34.953Z,16.04
2017-10-16T20:53:04.200Z,14.32
2017-10-16T20:55:32.508Z,14.64
2017-10-16T20:58:00.943Z,15.20
2017-10-16T21:00:29.224Z,14.10
2017-10-16T21:02:58.529Z,15.28
2017-10-16T21:05:26.791Z,14.74
2017-10-16T21:07:54.275Z,15.26
2017-10-16T21:10:22.572Z,15.02
2017-10-16T21:12:50.828Z,14.66
2017-10-16T21:15:25.759Z,15.00
2017-10-16T21:17:54.016Z,14.58
2017-10-16T21:20:22.369Z,15.34
2017-10-16T21:22:50.716Z,15.92
2017-10-16T21:25:18.981Z,15.16
2017-10-16T21:27:47.292Z,14.10
2017-10-16T21:30:28.012Z,13.96
2017-10-16T21:32:56.311Z,16.10
2017-10-16T21:35:24.576Z,16.26
2017-10-16T21:37:52.871Z,15.84
2017-10-16T21:40:23.140Z,15.74
2017-10-16T21:42:51.436Z,14.96
2017-10-16T21:45:19.715Z,15.08
2017-10-16T21:47:48.036Z,15.30
2017-10-16T21:50:22.768Z,16.36
2017-10-16T21:52:51.060Z,15.38
2017-10-16T21:55:19.384Z,15.86
2017-10-16T21:57:46.888Z,17.12
2017-10-16T22:00:15.151Z,14.58
2017-10-16T22:02:42.681Z,14.80
2017-10-16T22:05:10.991Z,17.10
2017-10-16T22:07:40.203Z,16.30
2017-10-16T22:10:09.744Z,16.48
2017-10-16T22:12:45.935Z,15.70
2017-10-16T22:15:14.195Z,16.46
2017-10-16T22:17:41.703Z,15.88
2017-10-16T22:20:10.003Z,15.90
2017-10-16T22:22:37.560Z,16.28
2017-10-16T22:25:25.921Z,16.42
2017-10-16T22:27:54.182Z,17.90
2017-10-16T22:30:22.440Z,17.56
2017-10-16T22:32:50.724Z,17.74
2017-10-16T22:35:18.987Z,15.62
2017-10-16T22:37:47.293Z,16.52
2017-10-16T22:40:16.500Z,15.16
2017-10-16T22:42:44.756Z,16.92
2017-10-16T22:45:13.955Z,17.92
2017-10-16T22:47:42.247Z,16.18
2017-10-16T22:50:12.520Z,17.30
2017-10-16T22:52:40.023Z,16.78
2017-10-16T22:55:18.095Z,16.00
2017-10-16T22:57:46.351Z,15.40
2017-10-16T23:00:13.861Z,16.00
2017-10-16T23:02:42.160Z,16.24
2017-10-16T23:05:23.220Z,16.36
2017-10-16T23:07:51.512Z,15.60
2017-10-16T23:10:19.811Z,15.84
2017-10-16T23:12:48.098Z,15.08
2017-10-16T23:15:16.400Z,16.62
2017-10-16T23:17:44.659Z,15.68
2017-10-16T23:20:12.948Z,15.00
2017-10-16T23:25:35.931Z,14.72
2017-10-16T23:28:05.388Z,16.08
2017-10-16T23:33:27.265Z,16.54
2017-10-16T23:35:55.565Z,15.88
2017-10-16T23:38:24.788Z,16.58
2017-10-16T23:40:53.043Z,14.94
2017-10-16T23:43:21.335Z,15.24
2017-10-16T23:45:49.596Z,15.90
2017-10-16T23:48:38.468Z,16.22
2017-10-16T23:51:06.731Z,14.82
2017-10-16T23:53:48.980Z,15.42
2017-10-16T23:56:17.242Z,14.56
2017-10-16T23:58:45.543Z,16.14
